sensor_id;sensor_type;location;lat;lon;timestamp;pressure;altitude;pressure_sealevel;temperature;humidity
12221;BME280;6173;42.024;23.096;2022-07-09T00:01:42;96477.91;;;18.22;100.00
12221;BME280;6173;42.024;23.096;2022-07-09T00:04:09;96502.47;;;18.36;100.00
12221;BME280;6173;42.024;23.096;2022-07-09T00:06:36;96508.03;;;18.43;100.00
12221;BME280;6173;42.024;23.096;2022-07-09T00:09:03;96498.59;;;18.49;100.00
12221;BME280;6173;42.024;23.096;2022-07-09T00:11:32;96487.84;;;18.62;100.00
12221;BME280;6173;42.024;23.096;2022-07-09T00:13:58;96485.59;;;18.64;100.00
12221;BME280;6173;42.024;23.096;2022-07-09T00:16:25;96441.09;;;18.34;100.00
12221;BME280;6173;42.024;23.096;2022-07-09T00:18:52;96476.88;;;18.67;100.00
12221;BME280;6173;42.024;23.096;2022-07-09T00:21:19;96473.31;;;18.75;100.00
12221;BME280;6173;42.024;23.096;2022-07-09T00:23:45;96473.75;;;18.65;100.00
12221;BME280;6173;42.024;23.096;2022-07-09T00:26:12;96466.53;;;18.53;100.00
12221;BME280;6173;42.024;23.096;2022-07-09T00:28:41;96463.00;;;18.65;100.00
12221;BME280;6173;42.024;23.096;2022-07-09T00:31:07;96463.41;;;18.51;100.00
12221;BME280;6173;42.024;23.096;2022-07-09T00:33:34;96459.06;;;18.46;100.00
12221;BME280;6173;42.024;23.096;2022-07-09T00:36:01;96451.69;;;18.43;100.00
12221;BME280;6173;42.024;23.096;2022-07-09T00:38:28;96455.44;;;18.54;100.00
12221;BME280;6173;42.024;23.096;2022-07-09T00:40:55;96446.63;;;18.54;100.00
12221;BME280;6173;42.024;23.096;2022-07-09T00:43:22;96440.84;;;18.52;100.00
12221;BME280;6173;42.024;23.096;2022-07-09T00:45:51;96442.75;;;18.51;100.00
12221;BME280;6173;42.024;23.096;2022-07-09T00:48:17;96432.91;;;18.55;100.00
12221;BME280;6173;42.024;23.096;2022-07-09T00:50:45;96439.59;;;18.49;100.00
12221;BME280;6173;42.024;23.096;2022-07-09T00:53:14;96433.56;;;18.52;100.00
12221;BME280;6173;42.024;23.096;2022-07-09T00:55:41;96430.09;;;18.52;100.00
12221;BME280;6173;42.024;23.096;2022-07-09T00:58:11;96427.31;;;18.48;100.00
12221;BME280;6173;42.024;23.096;2022-07-09T01:00:38;96428.78;;;18.46;100.00
12221;BME280;6173;42.024;23.096;2022-07-09T01:03:06;96424.88;;;18.43;100.00
12221;BME280;6173;42.024;23.096;2022-07-09T01:05:33;96417.78;;;18.35;100.00
12221;BME280;6173;42.024;23.096;2022-07-09T01:08:03;96414.53;;;18.29;100.00
12221;BME280;6173;42.024;23.096;2022-07-09T01:10:30;96423.69;;;18.41;100.00
12221;BME280;6173;42.024;23.096;2022-07-09T01:12:57;96415.81;;;18.48;100.00
12221;BME280;6173;42.024;23.096;2022-07-09T01:15:24;96418.94;;;18.50;100.00
12221;BME280;6173;42.024;23.096;2022-07-09T01:17:51;96431.13;;;18.47;100.00
12221;BME280;6173;42.024;23.096;2022-07-09T01:20:21;96425.16;;;18.54;100.00
12221;BME280;6173;42.024;23.096;2022-07-09T01:22:48;96429.19;;;18.60;100.00
12221;BME280;6173;42.024;23.096;2022-07-09T01:25:16;96425.94;;;18.54;100.00
12221;BME280;6173;42.024;23.096;2022-07-09T01:27:44;96397.53;;;18.38;100.00
12221;BME280;6173;42.024;23.096;2022-07-09T01:30:23;96435.81;;;18.50;100.00
12221;BME280;6173;42.024;23.096;2022-07-09T01:32:50;96443.50;;;18.52;100.00
12221;BME280;6173;42.024;23.096;2022-07-09T01:35:17;96434.34;;;18.53;100.00
12221;BME280;6173;42.024;23.096;2022-07-09T01:37:45;96429.75;;;18.53;100.00
12221;BME280;6173;42.024;23.096;2022-07-09T01:40:12;96429.50;;;18.58;100.00
12221;BME280;6173;42.024;23.096;2022-07-09T01:42:39;96420.53;;;18.67;100.00
12221;BME280;6173;42.024;23.096;2022-07-09T01:45:07;96414.59;;;18.73;100.00
12221;BME280;6173;42.024;23.096;2022-07-09T01:47:34;96399.31;;;18.62;100.00
12221;BME280;6173;42.024;23.096;2022-07-09T01:50:01;96413.94;;;18.64;100.00
12221;BME280;6173;42.024;23.096;2022-07-09T01:52:29;96417.53;;;18.40;100.00
12221;BME280;6173;42.024;23.096;2022-07-09T01:54:57;96420.53;;;18.39;100.00
12221;BME280;6173;42.024;23.096;2022-07-09T01:57:24;96445.44;;;18.39;100.00
12221;BME280;6173;42.024;23.096;2022-07-09T01:59:51;96436.97;;;18.37;100.00
12221;BME280;6173;42.024;23.096;2022-07-09T02:02:18;96431.72;;;18.41;100.00
12221;BME280;6173;42.024;23.096;2022-07-09T02:04:45;96434.28;;;18.37;100.00
12221;BME280;6173;42.024;23.096;2022-07-09T02:07:13;96428.75;;;18.30;100.00
12221;BME280;6173;42.024;23.096;2022-07-09T02:09:40;96445.06;;;18.25;100.00
12221;BME280;6173;42.024;23.096;2022-07-09T02:12:08;96427.63;;;18.31;100.00
12221;BME280;6173;42.024;23.096;2022-07-09T02:14:36;96443.78;;;18.34;100.00
12221;BME280;6173;42.024;23.096;2022-07-09T02:17:03;96438.59;;;18.26;100.00
12221;BME280;6173;42.024;23.096;2022-07-09T02:19:30;96442.28;;;18.21;100.00
12221;BME280;6173;42.024;23.096;2022-07-09T02:21:57;96441.16;;;18.22;100.00
12221;BME280;6173;42.024;23.096;2022-07-09T02:24:23;96433.22;;;18.26;100.00
12221;BME280;6173;42.024;23.096;2022-07-09T02:26:50;96429.41;;;18.27;100.00
12221;BME280;6173;42.024;23.096;2022-07-09T02:29:18;96431.81;;;18.16;100.00
12221;BME280;6173;42.024;23.096;2022-07-09T02:31:45;96428.88;;;18.21;100.00
12221;BME280;6173;42.024;23.096;2022-07-09T02:34:12;96427.69;;;18.34;100.00
12221;BME280;6173;42.024;23.096;2022-07-09T02:36:38;96421.31;;;18.39;100.00
12221;BME280;6173;42.024;23.096;2022-07-09T02:39:05;96419.50;;;18.43;100.00
12221;BME280;6173;42.024;23.096;2022-07-09T02:41:32;96412.94;;;18.41;100.00
12221;BME280;6173;42.024;23.096;2022-07-09T02:43:59;96415.09;;;18.35;100.00
12221;BME280;6173;42.024;23.096;2022-07-09T02:46:27;96406.06;;;18.27;100.00
12221;BME280;6173;42.024;23.096;2022-07-09T02:48:54;96414.94;;;18.16;100.00
12221;BME280;6173;42.024;23.096;2022-07-09T02:51:20;96418.94;;;18.22;100.00
12221;BME280;6173;42.024;23.096;2022-07-09T02:53:47;96423.38;;;18.30;100.00
12221;BME280;6173;42.024;23.096;2022-07-09T02:56:14;96413.72;;;18.41;100.00
12221;BME280;6173;42.024;23.096;2022-07-09T02:58:41;96430.06;;;18.36;100.00
12221;BME280;6173;42.024;23.096;2022-07-09T03:01:07;96431.97;;;18.36;100.00
12221;BME280;6173;42.024;23.096;2022-07-09T03:03:36;96431.97;;;18.36;100.00
12221;BME280;6173;42.024;23.096;2022-07-09T03:06:03;96427.88;;;18.26;100.00
12221;BME280;6173;42.024;23.096;2022-07-09T03:08:31;96428.09;;;18.21;100.00
12221;BME280;6173;42.024;23.096;2022-07-09T03:10:58;96427.75;;;18.22;100.00
12221;BME280;6173;42.024;23.096;2022-07-09T03:13:24;96432.22;;;18.18;100.00
12221;BME280;6173;42.024;23.096;2022-07-09T03:15:51;96423.84;;;18.20;100.00
12221;BME280;6173;42.024;23.096;2022-07-09T03:18:18;96427.63;;;18.31;100.00
12221;BME280;6173;42.024;23.096;2022-07-09T03:20:47;96419.72;;;18.22;100.00
12221;BME280;6173;42.024;23.096;2022-07-09T03:23:14;96431.19;;;18.35;100.00
12221;BME280;6173;42.024;23.096;2022-07-09T03:25:41;96440.78;;;18.36;100.00
12221;BME280;6173;42.024;23.096;2022-07-09T03:28:08;96434.53;;;18.32;100.00
12221;BME280;6173;42.024;23.096;2022-07-09T03:30:35;96439.22;;;18.35;100.00
12221;BME280;6173;42.024;23.096;2022-07-09T03:33:02;96444.34;;;18.40;100.00
12221;BME280;6173;42.024;23.096;2022-07-09T03:35:29;96437.09;;;18.41;100.00
12221;BME280;6173;42.024;23.096;2022-07-09T03:37:57;96443.22;;;18.41;100.00
12221;BME280;6173;42.024;23.096;2022-07-09T03:40:24;96447.03;;;18.40;100.00
12221;BME280;6173;42.024;23.096;2022-07-09T03:42:51;96434.72;;;18.39;100.00
12221;BME280;6173;42.024;23.096;2022-07-09T03:45:18;96449.78;;;18.44;100.00
12221;BME280;6173;42.024;23.096;2022-07-09T03:47:45;96453.19;;;18.41;100.00
12221;BME280;6173;42.024;23.096;2022-07-09T03:50:13;96453.94;;;18.41;100.00
12221;BME280;6173;42.024;23.096;2022-07-09T03:52:40;96453.75;;;18.34;100.00
12221;BME280;6173;42.024;23.096;2022-07-09T03:55:09;96449.63;;;18.24;100.00
12221;BME280;6173;42.024;23.096;2022-07-09T03:57:35;96453.31;;;18.20;100.00
12221;BME280;6173;42.024;23.096;2022-07-09T04:00:03;96454.56;;;18.22;100.00
12221;BME280;6173;42.024;23.096;2022-07-09T04:02:30;96447.53;;;18.30;100.00
12221;BME280;6173;42.024;23.096;2022-07-09T04:04:57;96449.97;;;18.35;100.00
12221;BME280;6173;42.024;23.096;2022-07-09T04:07:24;96455.66;;;18.33;100.00
12221;BME280;6173;42.024;23.096;2022-07-09T04:09:52;96460.38;;;18.52;100.00
12221;BME280;6173;42.024;23.096;2022-07-09T04:12:20;96456.00;;;18.60;100.00
12221;BME280;6173;42.024;23.096;2022-07-09T04:14:47;96456.97;;;18.68;100.00
12221;BME280;6173;42.024;23.096;2022-07-09T04:17:14;96457.09;;;18.59;100.00
12221;BME280;6173;42.024;23.096;2022-07-09T04:19:40;96460.91;;;18.58;100.00
12221;BME280;6173;42.024;23.096;2022-07-09T04:22:07;96452.72;;;18.67;100.00
12221;BME280;6173;42.024;23.096;2022-07-09T04:24:34;96421.78;;;18.41;100.00
12221;BME280;6173;42.024;23.096;2022-07-09T04:27:01;96466.16;;;18.67;100.00
12221;BME280;6173;42.024;23.096;2022-07-09T04:29:29;96467.69;;;18.68;100.00
12221;BME280;6173;42.024;23.096;2022-07-09T04:31:56;96460.69;;;18.63;100.00
12221;BME280;6173;42.024;23.096;2022-07-09T04:34:23;96460.25;;;18.61;100.00
12221;BME280;6173;42.024;23.096;2022-07-09T04:36:49;96468.19;;;18.57;100.00
12221;BME280;6173;42.024;23.096;2022-07-09T04:39:16;96462.56;;;18.63;100.00
12221;BME280;6173;42.024;23.096;2022-07-09T04:41:43;96476.88;;;18.67;100.00
12221;BME280;6173;42.024;23.096;2022-07-09T04:44:10;96461.44;;;18.64;100.00
12221;BME280;6173;42.024;23.096;2022-07-09T04:46:42;96468.59;;;18.72;100.00
12221;BME280;6173;42.024;23.096;2022-07-09T04:49:09;96474.84;;;18.76;100.00
12221;BME280;6173;42.024;23.096;2022-07-09T04:51:36;96469.13;;;18.77;100.00
12221;BME280;6173;42.024;23.096;2022-07-09T04:54:03;96467.94;;;18.75;100.00
12221;BME280;6173;42.024;23.096;2022-07-09T04:56:30;96472.19;;;18.64;100.00
12221;BME280;6173;42.024;23.096;2022-07-09T04:58:56;96477.34;;;18.69;100.00
12221;BME280;6173;42.024;23.096;2022-07-09T05:01:26;96475.75;;;18.80;100.00
12221;BME280;6173;42.024;23.096;2022-07-09T05:03:56;96469.78;;;18.87;100.00
12221;BME280;6173;42.024;23.096;2022-07-09T05:06:23;96464.56;;;18.78;100.00
12221;BME280;6173;42.024;23.096;2022-07-09T05:08:49;96468.22;;;18.85;100.00
12221;BME280;6173;42.024;23.096;2022-07-09T05:11:16;96477.56;;;18.92;100.00
12221;BME280;6173;42.024;23.096;2022-07-09T05:13:43;96474.34;;;18.86;100.00
12221;BME280;6173;42.024;23.096;2022-07-09T05:16:11;96475.84;;;18.99;100.00
12221;BME280;6173;42.024;23.096;2022-07-09T05:18:38;96466.34;;;19.18;100.00
12221;BME280;6173;42.024;23.096;2022-07-09T05:21:06;96481.31;;;19.19;100.00
12221;BME280;6173;42.024;23.096;2022-07-09T05:23:33;96491.03;;;19.23;100.00
12221;BME280;6173;42.024;23.096;2022-07-09T05:26:00;96489.38;;;19.19;100.00
12221;BME280;6173;42.024;23.096;2022-07-09T05:28:27;96489.66;;;19.29;100.00
12221;BME280;6173;42.024;23.096;2022-07-09T05:30:54;96490.78;;;19.28;100.00
12221;BME280;6173;42.024;23.096;2022-07-09T05:33:20;96482.72;;;19.13;100.00
12221;BME280;6173;42.024;23.096;2022-07-09T05:35:47;96486.00;;;19.06;100.00
12221;BME280;6173;42.024;23.096;2022-07-09T05:38:15;96483.41;;;19.09;100.00
12221;BME280;6173;42.024;23.096;2022-07-09T05:40:42;96484.72;;;19.16;100.00
12221;BME280;6173;42.024;23.096;2022-07-09T05:43:09;96490.69;;;19.25;100.00
12221;BME280;6173;42.024;23.096;2022-07-09T05:45:36;96487.94;;;19.37;100.00
12221;BME280;6173;42.024;23.096;2022-07-09T05:48:03;96482.81;;;19.48;100.00
12221;BME280;6173;42.024;23.096;2022-07-09T05:50:30;96484.72;;;19.47;100.00
12221;BME280;6173;42.024;23.096;2022-07-09T05:52:57;96469.38;;;19.32;100.00
12221;BME280;6173;42.024;23.096;2022-07-09T05:55:25;96478.66;;;19.34;100.00
12221;BME280;6173;42.024;23.096;2022-07-09T05:57:52;96478.81;;;19.26;100.00
12221;BME280;6173;42.024;23.096;2022-07-09T06:00:19;96474.91;;;19.39;100.00
12221;BME280;6173;42.024;23.096;2022-07-09T06:02:45;96473.97;;;19.47;100.00
12221;BME280;6173;42.024;23.096;2022-07-09T06:05:12;96470.94;;;19.49;100.00
12221;BME280;6173;42.024;23.096;2022-07-09T06:07:39;96474.75;;;19.63;100.00
12221;BME280;6173;42.024;23.096;2022-07-09T06:10:10;96475.53;;;19.64;100.00
12221;BME280;6173;42.024;23.096;2022-07-09T06:12:40;96479.44;;;19.67;100.00
12221;BME280;6173;42.024;23.096;2022-07-09T06:15:08;96478.66;;;19.82;100.00
12221;BME280;6173;42.024;23.096;2022-07-09T06:17:35;96481.34;;;19.82;100.00
12221;BME280;6173;42.024;23.096;2022-07-09T06:20:03;96478.16;;;19.76;100.00
12221;BME280;6173;42.024;23.096;2022-07-09T06:22:30;96475.59;;;19.83;100.00
12221;BME280;6173;42.024;23.096;2022-07-09T06:24:56;96471.03;;;19.52;100.00
12221;BME280;6173;42.024;23.096;2022-07-09T06:27:23;96454.22;;;19.55;100.00
12221;BME280;6173;42.024;23.096;2022-07-09T06:29:52;96477.91;;;19.66;100.00
12221;BME280;6173;42.024;23.096;2022-07-09T06:32:19;96473.41;;;19.70;100.00
12221;BME280;6173;42.024;23.096;2022-07-09T06:34:45;96471.13;;;19.72;100.00
12221;BME280;6173;42.024;23.096;2022-07-09T06:37:12;96472.16;;;19.67;100.00
12221;BME280;6173;42.024;23.096;2022-07-09T06:39:39;96457.69;;;19.72;100.00
12221;BME280;6173;42.024;23.096;2022-07-09T06:42:13;96478.81;;;19.73;100.00
12221;BME280;6173;42.024;23.096;2022-07-09T06:44:40;96471.53;;;19.58;100.00
12221;BME280;6173;42.024;23.096;2022-07-09T06:47:08;96473.22;;;19.62;100.00
12221;BME280;6173;42.024;23.096;2022-07-09T06:49:35;96473.22;;;19.62;100.00
12221;BME280;6173;42.024;23.096;2022-07-09T06:52:03;96479.69;;;19.77;100.00
12221;BME280;6173;42.024;23.096;2022-07-09T06:54:30;96479.78;;;19.81;100.00
12221;BME280;6173;42.024;23.096;2022-07-09T06:56:56;96481.13;;;20.06;100.00
12221;BME280;6173;42.024;23.096;2022-07-09T06:59:23;96476.19;;;19.93;100.00
12221;BME280;6173;42.024;23.096;2022-07-09T07:01:50;96479.03;;;20.35;100.00
12221;BME280;6173;42.024;23.096;2022-07-09T07:04:18;96474.41;;;20.51;100.00
12221;BME280;6173;42.024;23.096;2022-07-09T07:06:46;96479.00;;;20.70;100.00
12221;BME280;6173;42.024;23.096;2022-07-09T07:09:14;96473.91;;;20.65;100.00
12221;BME280;6173;42.024;23.096;2022-07-09T07:11:40;96471.97;;;20.46;100.00
12221;BME280;6173;42.024;23.096;2022-07-09T07:14:07;96467.88;;;20.52;100.00
12221;BME280;6173;42.024;23.096;2022-07-09T07:16:34;96470.28;;;20.77;100.00
12221;BME280;6173;42.024;23.096;2022-07-09T07:19:01;96465.28;;;20.98;100.00
12221;BME280;6173;42.024;23.096;2022-07-09T07:21:29;96461.91;;;20.82;100.00
12221;BME280;6173;42.024;23.096;2022-07-09T07:23:55;96465.56;;;20.93;100.00
12221;BME280;6173;42.024;23.096;2022-07-09T07:26:22;96464.94;;;21.00;100.00
12221;BME280;6173;42.024;23.096;2022-07-09T07:28:49;96459.84;;;20.95;100.00
12221;BME280;6173;42.024;23.096;2022-07-09T07:31:16;96452.25;;;21.00;100.00
12221;BME280;6173;42.024;23.096;2022-07-09T07:33:43;96456.13;;;21.03;100.00
12221;BME280;6173;42.024;23.096;2022-07-09T07:36:09;96457.09;;;21.14;100.00
12221;BME280;6173;42.024;23.096;2022-07-09T07:38:38;96454.03;;;21.15;100.00
12221;BME280;6173;42.024;23.096;2022-07-09T07:41:04;96457.03;;;21.10;100.00
12221;BME280;6173;42.024;23.096;2022-07-09T07:43:31;96456.38;;;20.94;100.00
12221;BME280;6173;42.024;23.096;2022-07-09T07:45:58;96439.38;;;20.90;100.00
12221;BME280;6173;42.024;23.096;2022-07-09T07:48:25;96456.59;;;21.08;100.00
12221;BME280;6173;42.024;23.096;2022-07-09T07:50:53;96433.41;;;21.00;100.00
12221;BME280;6173;42.024;23.096;2022-07-09T07:53:20;96460.97;;;21.16;100.00
12221;BME280;6173;42.024;23.096;2022-07-09T07:55:48;96455.31;;;20.99;100.00
12221;BME280;6173;42.024;23.096;2022-07-09T07:58:15;96455.09;;;20.88;100.00
12221;BME280;6173;42.024;23.096;2022-07-09T08:00:42;96449.38;;;21.12;100.00
12221;BME280;6173;42.024;23.096;2022-07-09T08:03:09;96459.38;;;21.12;100.00
12221;BME280;6173;42.024;23.096;2022-07-09T08:05:36;96453.06;;;21.27;100.00
12221;BME280;6173;42.024;23.096;2022-07-09T08:08:03;96447.25;;;21.45;100.00
12221;BME280;6173;42.024;23.096;2022-07-09T08:10:29;96458.19;;;21.32;100.00
12221;BME280;6173;42.024;23.096;2022-07-09T08:12:58;96454.34;;;21.56;100.00
12221;BME280;6173;42.024;23.096;2022-07-09T08:15:24;96456.75;;;21.61;100.00
12221;BME280;6173;42.024;23.096;2022-07-09T08:17:51;96445.44;;;21.52;100.00
12221;BME280;6173;42.024;23.096;2022-07-09T08:20:19;96458.06;;;21.48;100.00
12221;BME280;6173;42.024;23.096;2022-07-09T08:22:46;96452.88;;;21.36;100.00
12221;BME280;6173;42.024;23.096;2022-07-09T08:25:13;96454.56;;;21.44;100.00
12221;BME280;6173;42.024;23.096;2022-07-09T08:27:40;96451.34;;;21.61;100.00
12221;BME280;6173;42.024;23.096;2022-07-09T08:30:09;96457.25;;;21.71;100.00
12221;BME280;6173;42.024;23.096;2022-07-09T08:32:36;96458.00;;;21.94;100.00
12221;BME280;6173;42.024;23.096;2022-07-09T08:35:05;96449.59;;;21.73;100.00
12221;BME280;6173;42.024;23.096;2022-07-09T08:37:31;96447.13;;;22.13;100.00
12221;BME280;6173;42.024;23.096;2022-07-09T08:40:00;96445.75;;;22.60;100.00
12221;BME280;6173;42.024;23.096;2022-07-09T08:42:26;96446.31;;;22.77;100.00
12221;BME280;6173;42.024;23.096;2022-07-09T08:44:54;96446.69;;;22.75;100.00
12221;BME280;6173;42.024;23.096;2022-07-09T08:47:22;96450.75;;;22.58;100.00
12221;BME280;6173;42.024;23.096;2022-07-09T08:49:54;96442.94;;;22.19;100.00
12221;BME280;6173;42.024;23.096;2022-07-09T08:52:23;96446.91;;;22.59;100.00
12221;BME280;6173;42.024;23.096;2022-07-09T08:54:52;96428.41;;;22.95;100.00
12221;BME280;6173;42.024;23.096;2022-07-09T08:57:19;96431.19;;;23.50;100.00
12221;BME280;6173;42.024;23.096;2022-07-09T08:59:46;96434.38;;;23.63;100.00
12221;BME280;6173;42.024;23.096;2022-07-09T09:02:12;96434.53;;;23.33;100.00
12221;BME280;6173;42.024;23.096;2022-07-09T09:04:41;96437.88;;;23.67;100.00
12221;BME280;6173;42.024;23.096;2022-07-09T09:07:15;96427.69;;;23.50;100.00
12221;BME280;6173;42.024;23.096;2022-07-09T09:09:43;96414.81;;;23.29;100.00
12221;BME280;6173;42.024;23.096;2022-07-09T09:12:10;96425.72;;;23.46;100.00
12221;BME280;6173;42.024;23.096;2022-07-09T09:14:37;96416.91;;;23.53;100.00
12221;BME280;6173;42.024;23.096;2022-07-09T09:17:04;96417.69;;;23.54;100.00
12221;BME280;6173;42.024;23.096;2022-07-09T09:19:32;96422.59;;;22.93;100.00
12221;BME280;6173;42.024;23.096;2022-07-09T09:22:00;96430.38;;;22.98;100.00
12221;BME280;6173;42.024;23.096;2022-07-09T09:24:27;96442.03;;;23.09;100.00
12221;BME280;6173;42.024;23.096;2022-07-09T09:26:58;96436.63;;;23.09;100.00
12221;BME280;6173;42.024;23.096;2022-07-09T09:29:25;96437.72;;;23.45;100.00
12221;BME280;6173;42.024;23.096;2022-07-09T09:31:53;96455.13;;;23.04;100.00
12221;BME280;6173;42.024;23.096;2022-07-09T09:34:20;96435.69;;;22.91;100.00
12221;BME280;6173;42.024;23.096;2022-07-09T09:36:48;96423.09;;;22.72;100.00
12221;BME280;6173;42.024;23.096;2022-07-09T09:39:18;96444.53;;;22.54;100.00
12221;BME280;6173;42.024;23.096;2022-07-09T09:41:46;96438.63;;;22.79;100.00
12221;BME280;6173;42.024;23.096;2022-07-09T09:44:15;96429.88;;;22.89;100.00
12221;BME280;6173;42.024;23.096;2022-07-09T09:46:43;96434.72;;;22.73;100.00
12221;BME280;6173;42.024;23.096;2022-07-09T09:49:11;96434.06;;;22.86;100.00
12221;BME280;6173;42.024;23.096;2022-07-09T09:51:46;96438.69;;;23.23;100.00
12221;BME280;6173;42.024;23.096;2022-07-09T09:54:19;96432.81;;;23.14;100.00
12221;BME280;6173;42.024;23.096;2022-07-09T09:56:46;96428.63;;;23.20;100.00
12221;BME280;6173;42.024;23.096;2022-07-09T09:59:14;96429.81;;;23.23;100.00
12221;BME280;6173;42.024;23.096;2022-07-09T10:01:42;96424.38;;;23.19;100.00
12221;BME280;6173;42.024;23.096;2022-07-09T10:04:10;96423.38;;;23.41;100.00
12221;BME280;6173;42.024;23.096;2022-07-09T10:06:37;96426.69;;;23.20;100.00
12221;BME280;6173;42.024;23.096;2022-07-09T10:09:05;96407.09;;;23.31;100.00
12221;BME280;6173;42.024;23.096;2022-07-09T10:11:42;96423.94;;;23.13;100.00
12221;BME280;6173;42.024;23.096;2022-07-09T10:14:15;96423.38;;;22.93;100.00
12221;BME280;6173;42.024;23.096;2022-07-09T10:16:42;96414.13;;;22.94;100.00
12221;BME280;6173;42.024;23.096;2022-07-09T10:19:09;96422.16;;;23.32;100.00
12221;BME280;6173;42.024;23.096;2022-07-09T10:21:37;96418.06;;;23.52;100.00
12221;BME280;6173;42.024;23.096;2022-07-09T10:24:05;96413.97;;;23.69;100.00
12221;BME280;6173;42.024;23.096;2022-07-09T10:26:47;96432.56;;;23.78;100.00
12221;BME280;6173;42.024;23.096;2022-07-09T10:29:18;96421.88;;;23.99;100.00
12221;BME280;6173;42.024;23.096;2022-07-09T10:31:46;96404.53;;;23.48;100.00
12221;BME280;6173;42.024;23.096;2022-07-09T10:34:29;96415.78;;;23.58;100.00
12221;BME280;6173;42.024;23.096;2022-07-09T10:36:58;96435.69;;;23.83;100.00
12221;BME280;6173;42.024;23.096;2022-07-09T10:39:24;96417.59;;;23.94;100.00
12221;BME280;6173;42.024;23.096;2022-07-09T10:42:00;96419.53;;;23.94;100.00
12221;BME280;6173;42.024;23.096;2022-07-09T10:44:27;96412.28;;;23.54;100.00
12221;BME280;6173;42.024;23.096;2022-07-09T10:46:55;96425.31;;;23.37;100.00
12221;BME280;6173;42.024;23.096;2022-07-09T10:49:24;96424.97;;;23.42;100.00
12221;BME280;6173;42.024;23.096;2022-07-09T10:51:55;96434.53;;;23.33;100.00
12221;BME280;6173;42.024;23.096;2022-07-09T10:54:22;96417.81;;;23.20;100.00
12221;BME280;6173;42.024;23.096;2022-07-09T10:56:48;96421.31;;;23.24;100.00
12221;BME280;6173;42.024;23.096;2022-07-09T10:59:17;96415.28;;;22.97;100.00
12221;BME280;6173;42.024;23.096;2022-07-09T11:01:44;96430.19;;;22.84;100.00
12221;BME280;6173;42.024;23.096;2022-07-09T11:04:11;96420.31;;;22.61;100.00
12221;BME280;6173;42.024;23.096;2022-07-09T11:06:44;96440.84;;;22.69;100.00
12221;BME280;6173;42.024;23.096;2022-07-09T11:09:12;96448.66;;;22.82;100.00
12221;BME280;6173;42.024;23.096;2022-07-09T11:11:41;96430.97;;;23.25;100.00
12221;BME280;6173;42.024;23.096;2022-07-09T11:14:09;96447.16;;;23.18;100.00
12221;BME280;6173;42.024;23.096;2022-07-09T11:16:37;96456.03;;;22.85;100.00
12221;BME280;6173;42.024;23.096;2022-07-09T11:19:12;96455.31;;;22.54;100.00
12221;BME280;6173;42.024;23.096;2022-07-09T11:21:39;96455.59;;;22.45;100.00
12221;BME280;6173;42.024;23.096;2022-07-09T11:24:12;96463.63;;;22.38;100.00
12221;BME280;6173;42.024;23.096;2022-07-09T11:26:39;96448.84;;;22.62;100.00
12221;BME280;6173;42.024;23.096;2022-07-09T11:29:06;96463.09;;;22.59;100.00
12221;BME280;6173;42.024;23.096;2022-07-09T11:31:34;96450.91;;;22.73;100.00
12221;BME280;6173;42.024;23.096;2022-07-09T11:34:02;96429.81;;;22.48;100.00
12221;BME280;6173;42.024;23.096;2022-07-09T11:36:39;96436.09;;;21.99;100.00
12221;BME280;6173;42.024;23.096;2022-07-09T11:39:05;96445.84;;;22.07;100.00
12221;BME280;6173;42.024;23.096;2022-07-09T11:41:40;96446.56;;;22.04;100.00
12221;BME280;6173;42.024;23.096;2022-07-09T11:44:06;96413.34;;;21.70;100.00
12221;BME280;6173;42.024;23.096;2022-07-09T11:46:35;96450.00;;;22.01;100.00
12221;BME280;6173;42.024;23.096;2022-07-09T11:49:13;96438.41;;;21.71;100.00
12221;BME280;6173;42.024;23.096;2022-07-09T11:51:41;96440.78;;;21.76;100.00
12221;BME280;6173;42.024;23.096;2022-07-09T11:54:09;96459.13;;;21.66;100.00
12221;BME280;6173;42.024;23.096;2022-07-09T11:56:40;96450.47;;;21.31;100.00
12221;BME280;6173;42.024;23.096;2022-07-09T11:59:08;96457.53;;;21.16;100.00
12221;BME280;6173;42.024;23.096;2022-07-09T12:01:35;96460.97;;;21.36;100.00
12221;BME280;6173;42.024;23.096;2022-07-09T12:04:04;96447.59;;;21.20;100.00
12221;BME280;6173;42.024;23.096;2022-07-09T12:06:31;96453.41;;;21.45;100.00
12221;BME280;6173;42.024;23.096;2022-07-09T12:08:58;96468.34;;;21.65;100.00
12221;BME280;6173;42.024;23.096;2022-07-09T12:11:26;96467.31;;;21.28;100.00
12221;BME280;6173;42.024;23.096;2022-07-09T12:13:53;96463.72;;;20.97;100.00
12221;BME280;6173;42.024;23.096;2022-07-09T12:16:20;96478.47;;;21.72;100.00
12221;BME280;6173;42.024;23.096;2022-07-09T12:18:46;96472.53;;;21.63;100.00
12221;BME280;6173;42.024;23.096;2022-07-09T12:21:14;96469.47;;;22.14;100.00
12221;BME280;6173;42.024;23.096;2022-07-09T12:23:41;96476.19;;;22.27;100.00
12221;BME280;6173;42.024;23.096;2022-07-09T12:26:08;96472.44;;;21.82;100.00
12221;BME280;6173;42.024;23.096;2022-07-09T12:28:35;96460.28;;;21.65;100.00
12221;BME280;6173;42.024;23.096;2022-07-09T12:31:01;96469.72;;;21.10;100.00
12221;BME280;6173;42.024;23.096;2022-07-09T12:33:28;96466.44;;;21.43;100.00
12221;BME280;6173;42.024;23.096;2022-07-09T12:35:55;96456.94;;;22.02;100.00
12221;BME280;6173;42.024;23.096;2022-07-09T12:38:23;96458.75;;;22.21;100.00
12221;BME280;6173;42.024;23.096;2022-07-09T12:40:50;96463.66;;;22.42;100.00
12221;BME280;6173;42.024;23.096;2022-07-09T12:43:17;96461.41;;;21.91;100.00
12221;BME280;6173;42.024;23.096;2022-07-09T12:45:43;96475.97;;;21.86;100.00
12221;BME280;6173;42.024;23.096;2022-07-09T12:48:10;96473.84;;;21.73;100.00
12221;BME280;6173;42.024;23.096;2022-07-09T12:50:37;96500.66;;;21.39;100.00
12221;BME280;6173;42.024;23.096;2022-07-09T12:53:04;96485.91;;;21.33;100.00